sensor_id;sensor_type;location;lat;lon;timestamp;P1;durP1;ratioP1;P2;durP2;ratioP2
44606;SDS011;30315;46.072;14.474;2023-08-17T00:00:57;10.02;;;9.10;;
44606;SDS011;30315;46.072;14.474;2023-08-17T00:03:24;10.05;;;9.25;;
44606;SDS011;30315;46.072;14.474;2023-08-17T00:05:51;11.02;;;9.50;;
44606;SDS011;30315;46.072;14.474;2023-08-17T00:08:18;9.90;;;9.10;;
44606;SDS011;30315;46.072;14.474;2023-08-17T00:10:45;10.13;;;9.43;;
44606;SDS011;30315;46.072;14.474;2023-08-17T00:13:13;9.35;;;8.52;;
44606;SDS011;30315;46.072;14.474;2023-08-17T00:15:40;9.95;;;9.15;;
44606;SDS011;30315;46.072;14.474;2023-08-17T00:18:07;10.13;;;9.20;;
44606;SDS011;30315;46.072;14.474;2023-08-17T00:20:34;10.35;;;9.40;;
44606;SDS011;30315;46.072;14.474;2023-08-17T00:23:01;9.73;;;8.90;;
44606;SDS011;30315;46.072;14.474;2023-08-17T00:25:28;10.27;;;9.40;;
44606;SDS011;30315;46.072;14.474;2023-08-17T00:27:55;9.48;;;8.63;;
44606;SDS011;30315;46.072;14.474;2023-08-17T00:30:22;10.05;;;9.15;;
44606;SDS011;30315;46.072;14.474;2023-08-17T00:32:49;9.60;;;9.00;;
44606;SDS011;30315;46.072;14.474;2023-08-17T00:35:18;10.03;;;9.13;;
44606;SDS011;30315;46.072;14.474;2023-08-17T00:37:45;9.90;;;9.07;;
44606;SDS011;30315;46.072;14.474;2023-08-17T00:40:12;10.07;;;9.20;;
44606;SDS011;30315;46.072;14.474;2023-08-17T00:42:39;9.48;;;8.77;;
44606;SDS011;30315;46.072;14.474;2023-08-17T00:45:06;9.50;;;8.70;;
44606;SDS011;30315;46.072;14.474;2023-08-17T00:47:33;9.82;;;8.90;;
44606;SDS011;30315;46.072;14.474;2023-08-17T00:50:01;10.23;;;9.23;;
44606;SDS011;30315;46.072;14.474;2023-08-17T00:52:29;9.82;;;9.13;;
44606;SDS011;30315;46.072;14.474;2023-08-17T00:54:58;11.82;;;9.68;;
44606;SDS011;30315;46.072;14.474;2023-08-17T00:57:27;10.05;;;9.18;;
44606;SDS011;30315;46.072;14.474;2023-08-17T00:59:56;10.13;;;9.32;;
44606;SDS011;30315;46.072;14.474;2023-08-17T01:02:31;9.88;;;9.10;;
44606;SDS011;30315;46.072;14.474;2023-08-17T01:04:59;10.23;;;9.25;;
44606;SDS011;30315;46.072;14.474;2023-08-17T01:07:27;10.80;;;9.93;;
44606;SDS011;30315;46.072;14.474;2023-08-17T01:09:54;10.15;;;9.38;;
44606;SDS011;30315;46.072;14.474;2023-08-17T01:12:32;13.32;;;9.05;;
44606;SDS011;30315;46.072;14.474;2023-08-17T01:15:05;10.38;;;9.57;;
44606;SDS011;30315;46.072;14.474;2023-08-17T01:17:38;10.15;;;9.43;;
44606;SDS011;30315;46.072;14.474;2023-08-17T01:20:18;10.13;;;9.30;;
44606;SDS011;30315;46.072;14.474;2023-08-17T01:22:48;10.38;;;9.45;;
44606;SDS011;30315;46.072;14.474;2023-08-17T01:25:16;9.98;;;9.18;;
44606;SDS011;30315;46.072;14.474;2023-08-17T01:27:44;9.98;;;9.07;;
44606;SDS011;30315;46.072;14.474;2023-08-17T01:30:13;10.45;;;9.55;;
44606;SDS011;30315;46.072;14.474;2023-08-17T01:35:30;10.35;;;9.20;;
44606;SDS011;30315;46.072;14.474;2023-08-17T01:38:02;10.43;;;9.52;;
44606;SDS011;30315;46.072;14.474;2023-08-17T01:40:33;9.90;;;9.05;;
44606;SDS011;30315;46.072;14.474;2023-08-17T01:43:04;10.85;;;9.85;;
44606;SDS011;30315;46.072;14.474;2023-08-17T01:45:31;9.77;;;8.88;;
44606;SDS011;30315;46.072;14.474;2023-08-17T01:48:00;10.00;;;9.10;;
44606;SDS011;30315;46.072;14.474;2023-08-17T01:50:27;10.27;;;9.48;;
44606;SDS011;30315;46.072;14.474;2023-08-17T01:52:54;12.07;;;9.65;;
44606;SDS011;30315;46.072;14.474;2023-08-17T01:55:21;10.95;;;10.00;;
44606;SDS011;30315;46.072;14.474;2023-08-17T01:57:49;10.15;;;9.25;;
44606;SDS011;30315;46.072;14.474;2023-08-17T02:00:16;11.23;;;9.10;;
44606;SDS011;30315;46.072;14.474;2023-08-17T02:02:43;9.82;;;9.07;;
44606;SDS011;30315;46.072;14.474;2023-08-17T02:05:10;10.07;;;9.13;;
44606;SDS011;30315;46.072;14.474;2023-08-17T02:07:37;10.45;;;9.00;;
44606;SDS011;30315;46.072;14.474;2023-08-17T02:10:04;10.02;;;9.15;;
44606;SDS011;30315;46.072;14.474;2023-08-17T02:12:32;10.27;;;9.27;;
44606;SDS011;30315;46.072;14.474;2023-08-17T02:14:59;10.32;;;9.25;;
44606;SDS011;30315;46.072;14.474;2023-08-17T02:17:25;9.98;;;9.15;;
44606;SDS011;30315;46.072;14.474;2023-08-17T02:19:53;10.75;;;9.73;;
44606;SDS011;30315;46.072;14.474;2023-08-17T02:25:16;10.05;;;9.25;;
44606;SDS011;30315;46.072;14.474;2023-08-17T02:27:43;10.15;;;9.35;;
44606;SDS011;30315;46.072;14.474;2023-08-17T02:30:10;10.05;;;9.23;;
44606;SDS011;30315;46.072;14.474;2023-08-17T02:32:38;10.77;;;9.63;;
44606;SDS011;30315;46.072;14.474;2023-08-17T02:35:06;11.23;;;10.13;;
44606;SDS011;30315;46.072;14.474;2023-08-17T02:37:33;10.63;;;9.82;;
44606;SDS011;30315;46.072;14.474;2023-08-17T02:40:00;10.73;;;9.73;;
44606;SDS011;30315;46.072;14.474;2023-08-17T02:42:27;10.65;;;9.85;;
44606;SDS011;30315;46.072;14.474;2023-08-17T02:44:54;10.27;;;9.55;;
44606;SDS011;30315;46.072;14.474;2023-08-17T02:47:21;10.18;;;9.38;;
44606;SDS011;30315;46.072;14.474;2023-08-17T02:49:48;9.77;;;8.80;;
44606;SDS011;30315;46.072;14.474;2023-08-17T02:52:16;10.30;;;9.30;;
44606;SDS011;30315;46.072;14.474;2023-08-17T02:54:43;9.95;;;9.25;;
44606;SDS011;30315;46.072;14.474;2023-08-17T02:57:10;10.65;;;9.57;;
44606;SDS011;30315;46.072;14.474;2023-08-17T02:59:38;11.38;;;10.38;;
44606;SDS011;30315;46.072;14.474;2023-08-17T03:02:05;9.65;;;8.85;;
44606;SDS011;30315;46.072;14.474;2023-08-17T03:04:34;10.52;;;9.65;;
44606;SDS011;30315;46.072;14.474;2023-08-17T03:07:01;10.77;;;9.90;;
44606;SDS011;30315;46.072;14.474;2023-08-17T03:09:28;10.63;;;9.70;;
44606;SDS011;30315;46.072;14.474;2023-08-17T03:11:55;11.23;;;10.32;;
44606;SDS011;30315;46.072;14.474;2023-08-17T03:14:22;11.48;;;10.35;;
44606;SDS011;30315;46.072;14.474;2023-08-17T03:16:49;12.02;;;10.85;;
44606;SDS011;30315;46.072;14.474;2023-08-17T03:19:16;13.43;;;11.95;;
44606;SDS011;30315;46.072;14.474;2023-08-17T03:21:44;13.63;;;12.23;;
44606;SDS011;30315;46.072;14.474;2023-08-17T03:24:11;15.98;;;14.30;;
44606;SDS011;30315;46.072;14.474;2023-08-17T03:26:39;14.80;;;13.18;;
44606;SDS011;30315;46.072;14.474;2023-08-17T03:29:07;15.35;;;13.85;;
44606;SDS011;30315;46.072;14.474;2023-08-17T03:31:36;15.57;;;14.05;;
44606;SDS011;30315;46.072;14.474;2023-08-17T03:34:06;17.85;;;13.98;;
44606;SDS011;30315;46.072;14.474;2023-08-17T03:36:33;16.85;;;15.10;;
44606;SDS011;30315;46.072;14.474;2023-08-17T03:39:00;17.08;;;15.30;;
44606;SDS011;30315;46.072;14.474;2023-08-17T03:41:27;16.85;;;15.15;;
44606;SDS011;30315;46.072;14.474;2023-08-17T03:43:54;18.58;;;16.77;;
44606;SDS011;30315;46.072;14.474;2023-08-17T03:46:21;19.33;;;17.33;;
44606;SDS011;30315;46.072;14.474;2023-08-17T03:48:49;17.60;;;16.00;;
44606;SDS011;30315;46.072;14.474;2023-08-17T03:51:16;18.98;;;16.10;;
44606;SDS011;30315;46.072;14.474;2023-08-17T03:53:43;16.73;;;15.13;;
44606;SDS011;30315;46.072;14.474;2023-08-17T03:56:11;17.23;;;15.48;;
44606;SDS011;30315;46.072;14.474;2023-08-17T03:58:38;19.50;;;14.73;;
44606;SDS011;30315;46.072;14.474;2023-08-17T04:01:05;16.55;;;15.05;;
44606;SDS011;30315;46.072;14.474;2023-08-17T04:03:33;17.27;;;14.85;;
44606;SDS011;30315;46.072;14.474;2023-08-17T04:06:04;17.40;;;15.70;;
44606;SDS011;30315;46.072;14.474;2023-08-17T04:08:33;15.88;;;14.27;;
44606;SDS011;30315;46.072;14.474;2023-08-17T04:11:00;17.60;;;14.70;;
44606;SDS011;30315;46.072;14.474;2023-08-17T04:13:27;17.50;;;15.70;;
44606;SDS011;30315;46.072;14.474;2023-08-17T04:15:55;15.82;;;14.15;;
44606;SDS011;30315;46.072;14.474;2023-08-17T04:18:23;15.45;;;13.70;;
44606;SDS011;30315;46.072;14.474;2023-08-17T04:20:51;15.50;;;14.10;;
44606;SDS011;30315;46.072;14.474;2023-08-17T04:23:20;16.65;;;13.93;;
44606;SDS011;30315;46.072;14.474;2023-08-17T04:25:47;14.50;;;13.15;;
44606;SDS011;30315;46.072;14.474;2023-08-17T04:28:15;15.63;;;14.00;;
44606;SDS011;30315;46.072;14.474;2023-08-17T04:30:43;16.87;;;14.03;;
44606;SDS011;30315;46.072;14.474;2023-08-17T04:33:10;17.08;;;13.48;;
44606;SDS011;30315;46.072;14.474;2023-08-17T04:35:39;15.25;;;13.73;;
44606;SDS011;30315;46.072;14.474;2023-08-17T04:38:06;15.85;;;14.45;;
44606;SDS011;30315;46.072;14.474;2023-08-17T04:40:33;16.08;;;14.48;;
44606;SDS011;30315;46.072;14.474;2023-08-17T04:43:00;14.80;;;13.40;;
44606;SDS011;30315;46.072;14.474;2023-08-17T04:45:28;16.23;;;14.63;;
44606;SDS011;30315;46.072;14.474;2023-08-17T04:47:55;18.35;;;16.42;;
44606;SDS011;30315;46.072;14.474;2023-08-17T04:50:22;17.70;;;15.98;;
44606;SDS011;30315;46.072;14.474;2023-08-17T04:52:55;18.05;;;16.15;;
44606;SDS011;30315;46.072;14.474;2023-08-17T04:55:23;18.98;;;16.90;;
44606;SDS011;30315;46.072;14.474;2023-08-17T04:57:50;19.50;;;16.75;;
44606;SDS011;30315;46.072;14.474;2023-08-17T05:00:17;19.17;;;17.17;;
44606;SDS011;30315;46.072;14.474;2023-08-17T05:02:46;19.08;;;17.00;;
44606;SDS011;30315;46.072;14.474;2023-08-17T05:05:14;19.92;;;15.93;;
44606;SDS011;30315;46.072;14.474;2023-08-17T05:07:41;21.08;;;16.45;;
44606;SDS011;30315;46.072;14.474;2023-08-17T05:10:08;18.70;;;16.70;;
44606;SDS011;30315;46.072;14.474;2023-08-17T05:12:37;20.73;;;18.52;;
44606;SDS011;30315;46.072;14.474;2023-08-17T05:15:05;20.90;;;18.70;;
44606;SDS011;30315;46.072;14.474;2023-08-17T05:17:36;22.27;;;18.52;;
44606;SDS011;30315;46.072;14.474;2023-08-17T05:20:03;18.90;;;16.98;;
44606;SDS011;30315;46.072;14.474;2023-08-17T05:22:31;19.00;;;17.00;;
44606;SDS011;30315;46.072;14.474;2023-08-17T05:24:59;19.83;;;17.73;;
44606;SDS011;30315;46.072;14.474;2023-08-17T05:27:26;17.42;;;15.82;;
44606;SDS011;30315;46.072;14.474;2023-08-17T05:29:54;18.13;;;15.93;;
44606;SDS011;30315;46.072;14.474;2023-08-17T05:32:21;18.10;;;16.05;;
44606;SDS011;30315;46.072;14.474;2023-08-17T05:34:50;20.90;;;16.65;;
44606;SDS011;30315;46.072;14.474;2023-08-17T05:37:17;19.40;;;17.50;;
44606;SDS011;30315;46.072;14.474;2023-08-17T05:39:44;19.05;;;17.05;;
44606;SDS011;30315;46.072;14.474;2023-08-17T05:42:11;18.77;;;16.80;;
44606;SDS011;30315;46.072;14.474;2023-08-17T05:44:38;19.65;;;17.63;;
44606;SDS011;30315;46.072;14.474;2023-08-17T05:47:05;21.52;;;18.02;;
44606;SDS011;30315;46.072;14.474;2023-08-17T05:49:33;18.55;;;16.85;;
44606;SDS011;30315;46.072;14.474;2023-08-17T05:52:00;18.75;;;17.05;;
44606;SDS011;30315;46.072;14.474;2023-08-17T05:54:27;18.92;;;16.63;;
44606;SDS011;30315;46.072;14.474;2023-08-17T05:56:54;19.63;;;17.77;;
44606;SDS011;30315;46.072;14.474;2023-08-17T05:59:21;19.52;;;17.63;;
44606;SDS011;30315;46.072;14.474;2023-08-17T06:01:48;20.50;;;18.38;;
44606;SDS011;30315;46.072;14.474;2023-08-17T06:04:15;20.80;;;18.65;;
44606;SDS011;30315;46.072;14.474;2023-08-17T06:06:43;21.33;;;19.13;;
44606;SDS011;30315;46.072;14.474;2023-08-17T06:09:10;20.65;;;18.55;;
44606;SDS011;30315;46.072;14.474;2023-08-17T06:11:37;22.60;;;20.35;;
44606;SDS011;30315;46.072;14.474;2023-08-17T06:14:04;20.60;;;18.65;;
44606;SDS011;30315;46.072;14.474;2023-08-17T06:16:32;22.02;;;19.90;;
44606;SDS011;30315;46.072;14.474;2023-08-17T06:18:59;21.55;;;19.33;;
44606;SDS011;30315;46.072;14.474;2023-08-17T06:21:26;20.13;;;18.25;;
44606;SDS011;30315;46.072;14.474;2023-08-17T06:23:53;21.90;;;19.67;;
44606;SDS011;30315;46.072;14.474;2023-08-17T06:26:20;22.35;;;19.63;;
44606;SDS011;30315;46.072;14.474;2023-08-17T06:28:47;22.27;;;19.98;;
44606;SDS011;30315;46.072;14.474;2023-08-17T06:31:15;21.48;;;19.17;;
44606;SDS011;30315;46.072;14.474;2023-08-17T06:33:42;21.25;;;19.10;;
44606;SDS011;30315;46.072;14.474;2023-08-17T06:36:09;20.77;;;18.63;;
44606;SDS011;30315;46.072;14.474;2023-08-17T06:38:39;20.58;;;18.50;;
44606;SDS011;30315;46.072;14.474;2023-08-17T06:41:06;21.35;;;18.80;;
44606;SDS011;30315;46.072;14.474;2023-08-17T06:43:33;18.90;;;17.10;;
44606;SDS011;30315;46.072;14.474;2023-08-17T06:46:01;20.10;;;18.00;;
44606;SDS011;30315;46.072;14.474;2023-08-17T06:48:28;19.83;;;17.80;;
44606;SDS011;30315;46.072;14.474;2023-08-17T06:50:55;19.58;;;17.67;;
44606;SDS011;30315;46.072;14.474;2023-08-17T06:53:22;19.33;;;17.48;;
44606;SDS011;30315;46.072;14.474;2023-08-17T06:55:49;20.08;;;18.13;;
44606;SDS011;30315;46.072;14.474;2023-08-17T06:58:17;20.25;;;18.15;;
44606;SDS011;30315;46.072;14.474;2023-08-17T07:00:44;18.92;;;16.95;;
44606;SDS011;30315;46.072;14.474;2023-08-17T07:03:11;17.42;;;15.82;;
44606;SDS011;30315;46.072;14.474;2023-08-17T07:05:38;17.42;;;15.82;;
44606;SDS011;30315;46.072;14.474;2023-08-17T07:08:05;18.02;;;16.30;;
44606;SDS011;30315;46.072;14.474;2023-08-17T07:10:33;18.02;;;16.23;;
44606;SDS011;30315;46.072;14.474;2023-08-17T07:13:00;17.38;;;15.73;;
44606;SDS011;30315;46.072;14.474;2023-08-17T07:17:57;19.10;;;17.38;;
44606;SDS011;30315;46.072;14.474;2023-08-17T07:20:24;17.60;;;15.75;;
44606;SDS011;30315;46.072;14.474;2023-08-17T07:22:51;17.27;;;15.52;;
44606;SDS011;30315;46.072;14.474;2023-08-17T07:25:19;17.17;;;15.48;;
44606;SDS011;30315;46.072;14.474;2023-08-17T07:27:46;17.13;;;15.40;;
44606;SDS011;30315;46.072;14.474;2023-08-17T07:30:13;17.13;;;15.32;;
44606;SDS011;30315;46.072;14.474;2023-08-17T07:32:40;16.35;;;14.80;;
44606;SDS011;30315;46.072;14.474;2023-08-17T07:35:07;16.48;;;14.90;;
44606;SDS011;30315;46.072;14.474;2023-08-17T07:37:35;15.80;;;14.35;;
44606;SDS011;30315;46.072;14.474;2023-08-17T07:40:02;17.15;;;15.45;;
44606;SDS011;30315;46.072;14.474;2023-08-17T07:42:30;16.88;;;15.38;;
44606;SDS011;30315;46.072;14.474;2023-08-17T07:44:57;15.88;;;14.32;;
44606;SDS011;30315;46.072;14.474;2023-08-17T07:47:25;16.90;;;15.30;;
44606;SDS011;30315;46.072;14.474;2023-08-17T07:49:52;15.55;;;14.10;;
44606;SDS011;30315;46.072;14.474;2023-08-17T07:52:19;15.32;;;13.93;;
44606;SDS011;30315;46.072;14.474;2023-08-17T07:54:47;15.50;;;14.10;;
44606;SDS011;30315;46.072;14.474;2023-08-17T07:57:14;13.98;;;12.68;;
44606;SDS011;30315;46.072;14.474;2023-08-17T07:59:41;14.65;;;13.30;;
44606;SDS011;30315;46.072;14.474;2023-08-17T08:02:12;14.45;;;13.18;;
44606;SDS011;30315;46.072;14.474;2023-08-17T08:04:42;13.98;;;12.52;;
44606;SDS011;30315;46.072;14.474;2023-08-17T08:07:10;14.27;;;13.07;;
44606;SDS011;30315;46.072;14.474;2023-08-17T08:09:37;14.07;;;12.77;;
44606;SDS011;30315;46.072;14.474;2023-08-17T08:14:36;13.77;;;12.65;;
44606;SDS011;30315;46.072;14.474;2023-08-17T08:17:05;14.10;;;12.70;;
44606;SDS011;30315;46.072;14.474;2023-08-17T08:19:49;12.52;;;11.63;;
44606;SDS011;30315;46.072;14.474;2023-08-17T08:22:17;12.07;;;11.10;;
44606;SDS011;30315;46.072;14.474;2023-08-17T08:24:47;11.38;;;10.25;;
44606;SDS011;30315;46.072;14.474;2023-08-17T08:27:15;10.93;;;9.85;;
44606;SDS011;30315;46.072;14.474;2023-08-17T08:29:42;12.77;;;11.68;;
44606;SDS011;30315;46.072;14.474;2023-08-17T08:32:09;11.48;;;10.32;;
44606;SDS011;30315;46.072;14.474;2023-08-17T08:34:37;11.57;;;10.60;;
44606;SDS011;30315;46.072;14.474;2023-08-17T08:37:07;11.80;;;10.90;;
44606;SDS011;30315;46.072;14.474;2023-08-17T08:39:50;11.73;;;10.73;;
44606;SDS011;30315;46.072;14.474;2023-08-17T08:42:19;10.55;;;9.52;;
44606;SDS011;30315;46.072;14.474;2023-08-17T08:44:54;12.63;;;10.82;;
44606;SDS011;30315;46.072;14.474;2023-08-17T08:47:53;9.80;;;8.93;;
44606;SDS011;30315;46.072;14.474;2023-08-17T08:50:32;10.32;;;9.52;;
44606;SDS011;30315;46.072;14.474;2023-08-17T08:53:03;11.63;;;10.70;;
44606;SDS011;30315;46.072;14.474;2023-08-17T08:55:37;10.82;;;9.93;;
44606;SDS011;30315;46.072;14.474;2023-08-17T08:58:21;10.05;;;9.25;;
44606;SDS011;30315;46.072;14.474;2023-08-17T09:00:49;11.55;;;10.40;;
44606;SDS011;30315;46.072;14.474;2023-08-17T09:03:16;11.98;;;10.90;;
44606;SDS011;30315;46.072;14.474;2023-08-17T09:05:47;11.68;;;10.57;;
44606;SDS011;30315;46.072;14.474;2023-08-17T09:08:20;11.57;;;10.52;;
44606;SDS011;30315;46.072;14.474;2023-08-17T09:10:49;11.07;;;10.07;;
44606;SDS011;30315;46.072;14.474;2023-08-17T09:13:16;11.07;;;10.07;;
44606;SDS011;30315;46.072;14.474;2023-08-17T09:15:45;11.00;;;9.88;;
44606;SDS011;30315;46.072;14.474;2023-08-17T09:18:29;11.93;;;10.73;;
44606;SDS011;30315;46.072;14.474;2023-08-17T09:20:57;10.70;;;9.80;;
44606;SDS011;30315;46.072;14.474;2023-08-17T09:23:27;10.32;;;9.48;;
44606;SDS011;30315;46.072;14.474;2023-08-17T09:25:54;9.70;;;8.98;;
44606;SDS011;30315;46.072;14.474;2023-08-17T09:28:24;10.35;;;9.45;;
44606;SDS011;30315;46.072;14.474;2023-08-17T09:33:22;10.23;;;9.23;;
44606;SDS011;30315;46.072;14.474;2023-08-17T09:35:51;9.93;;;9.13;;
44606;SDS011;30315;46.072;14.474;2023-08-17T09:38:24;11.80;;;10.30;;
44606;SDS011;30315;46.072;14.474;2023-08-17T09:40:52;10.10;;;9.20;;
44606;SDS011;30315;46.072;14.474;2023-08-17T09:43:25;11.30;;;8.85;;
44606;SDS011;30315;46.072;14.474;2023-08-17T09:45:55;10.23;;;9.30;;
44606;SDS011;30315;46.072;14.474;2023-08-17T09:48:23;9.93;;;9.13;;
44606;SDS011;30315;46.072;14.474;2023-08-17T09:50:56;9.48;;;8.57;;
44606;SDS011;30315;46.072;14.474;2023-08-17T09:53:24;10.98;;;10.10;;
44606;SDS011;30315;46.072;14.474;2023-08-17T09:55:51;10.40;;;9.48;;
44606;SDS011;30315;46.072;14.474;2023-08-17T09:58:21;10.93;;;9.95;;
44606;SDS011;30315;46.072;14.474;2023-08-17T10:00:49;9.18;;;8.48;;
44606;SDS011;30315;46.072;14.474;2023-08-17T10:03:22;9.10;;;8.27;;
44606;SDS011;30315;46.072;14.474;2023-08-17T10:06:06;9.70;;;8.77;;
44606;SDS011;30315;46.072;14.474;2023-08-17T10:08:39;8.93;;;8.02;;
44606;SDS011;30315;46.072;14.474;2023-08-17T10:11:10;8.50;;;7.88;;
44606;SDS011;30315;46.072;14.474;2023-08-17T10:13:57;8.55;;;7.75;;
44606;SDS011;30315;46.072;14.474;2023-08-17T10:19:22;9.15;;;8.25;;
44606;SDS011;30315;46.072;14.474;2023-08-17T10:25:00;8.80;;;7.80;;
44606;SDS011;30315;46.072;14.474;2023-08-17T10:27:28;8.35;;;7.75;;
44606;SDS011;30315;46.072;14.474;2023-08-17T10:29:55;7.85;;;7.15;;
44606;SDS011;30315;46.072;14.474;2023-08-17T10:32:24;8.00;;;7.33;;
44606;SDS011;30315;46.072;14.474;2023-08-17T10:34:52;8.23;;;7.47;;
44606;SDS011;30315;46.072;14.474;2023-08-17T10:37:20;7.47;;;6.90;;
44606;SDS011;30315;46.072;14.474;2023-08-17T10:39:48;7.82;;;7.22;;
44606;SDS011;30315;46.072;14.474;2023-08-17T10:42:29;7.85;;;7.35;;
44606;SDS011;30315;46.072;14.474;2023-08-17T10:45:00;8.00;;;7.43;;
44606;SDS011;30315;46.072;14.474;2023-08-17T10:47:48;7.32;;;6.90;;
44606;SDS011;30315;46.072;14.474;2023-08-17T10:50:24;7.75;;;6.97;;
44606;SDS011;30315;46.072;14.474;2023-08-17T10:52:54;7.65;;;7.07;;
44606;SDS011;30315;46.072;14.474;2023-08-17T10:55:37;7.82;;;7.35;;
44606;SDS011;30315;46.072;14.474;2023-08-17T10:58:10;7.53;;;7.03;;
44606;SDS011;30315;46.072;14.474;2023-08-17T11:00:42;8.50;;;7.80;;
44606;SDS011;30315;46.072;14.474;2023-08-17T11:09:05;8.50;;;7.80;;
44606;SDS011;30315;46.072;14.474;2023-08-17T11:11:19;7.90;;;7.25;;
44606;SDS011;30315;46.072;14.474;2023-08-17T11:15:26;7.88;;;7.38;;
44606;SDS011;30315;46.072;14.474;2023-08-17T11:17:48;7.45;;;6.95;;
44606;SDS011;30315;46.072;14.474;2023-08-17T11:20:15;7.40;;;6.80;;
44606;SDS011;30315;46.072;14.474;2023-08-17T11:22:42;7.85;;;7.32;;
44606;SDS011;30315;46.072;14.474;2023-08-17T11:25:09;8.18;;;7.32;;
44606;SDS011;30315;46.072;14.474;2023-08-17T11:27:38;8.33;;;7.73;;
44606;SDS011;30315;46.072;14.474;2023-08-17T11:30:05;8.20;;;7.60;;
44606;SDS011;30315;46.072;14.474;2023-08-17T11:32:33;8.48;;;7.72;;
44606;SDS011;30315;46.072;14.474;2023-08-17T11:35:01;9.15;;;8.35;;
44606;SDS011;30315;46.072;14.474;2023-08-17T11:37:28;7.68;;;7.07;;
44606;SDS011;30315;46.072;14.474;2023-08-17T11:39:57;8.18;;;7.35;;
44606;SDS011;30315;46.072;14.474;2023-08-17T11:42:27;8.43;;;7.72;;
44606;SDS011;30315;46.072;14.474;2023-08-17T11:45:20;8.38;;;7.78;;
44606;SDS011;30315;46.072;14.474;2023-08-17T11:55:23;7.67;;;7.17;;
44606;SDS011;30315;46.072;14.474;2023-08-17T11:58:45;8.45;;;7.72;;
44606;SDS011;30315;46.072;14.474;2023-08-17T12:02:33;8.55;;;7.78;;
44606;SDS011;30315;46.072;14.474;2023-08-17T12:05:45;8.02;;;7.40;;
44606;SDS011;30315;46.072;14.474;2023-08-17T12:08:12;8.10;;;7.43;;
44606;SDS011;30315;46.072;14.474;2023-08-17T12:10:41;8.05;;;7.45;;
44606;SDS011;30315;46.072;14.474;2023-08-17T12:13:11;8.07;;;7.47;;
44606;SDS011;30315;46.072;14.474;2023-08-17T12:15:39;9.23;;;8.27;;
44606;SDS011;30315;46.072;14.474;2023-08-17T12:18:06;7.70;;;7.10;;
44606;SDS011;30315;46.072;14.474;2023-08-17T12:20:33;8.02;;;7.45;;
44606;SDS011;30315;46.072;14.474;2023-08-17T12:23:03;8.73;;;8.02;;
44606;SDS011;30315;46.072;14.474;2023-08-17T12:25:30;8.40;;;7.75;;
44606;SDS011;30315;46.072;14.474;2023-08-17T12:27:58;7.65;;;7.15;;
44606;SDS011;30315;46.072;14.474;2023-08-17T12:33:02;7.30;;;6.80;;
44606;SDS011;30315;46.072;14.474;2023-08-17T12:35:30;7.93;;;7.38;;
44606;SDS011;30315;46.072;14.474;2023-08-17T12:37:58;7.43;;;6.95;;
44606;SDS011;30315;46.072;14.474;2023-08-17T12:40:25;7.72;;;7.20;;
44606;SDS011;30315;46.072;14.474;2023-08-17T12:42:52;7.28;;;6.68;;
44606;SDS011;30315;46.072;14.474;2023-08-17T12:45:19;7.53;;;6.93;;
44606;SDS011;30315;46.072;14.474;2023-08-17T12:47:46;7.57;;;7.07;;
44606;SDS011;30315;46.072;14.474;2023-08-17T12:50:14;7.47;;;6.93;;
44606;SDS011;30315;46.072;14.474;2023-08-17T12:52:41;7.15;;;6.57;;
44606;SDS011;30315;46.072;14.474;2023-08-17T12:55:12;7.72;;;7.15;;
44606;SDS011;30315;46.072;14.474;2023-08-17T12:57:39;8.75;;;6.97;;
44606;SDS011;30315;46.072;14.474;2023-08-17T13:00:06;7.38;;;6.88;;
44606;SDS011;30315;46.072;14.474;2023-08-17T13:02:35;7.70;;;7.03;;
44606;SDS011;30315;46.072;14.474;2023-08-17T13:05:02;7.20;;;6.70;;
44606;SDS011;30315;46.072;14.474;2023-08-17T13:07:29;6.95;;;6.45;;
44606;SDS011;30315;46.072;14.474;2023-08-17T13:09:56;8.48;;;6.95;;
44606;SDS011;30315;46.072;14.474;2023-08-17T13:12:23;7.05;;;6.55;;
44606;SDS011;30315;46.072;14.474;2023-08-17T13:14:50;7.32;;;6.80;;
44606;SDS011;30315;46.072;14.474;2023-08-17T13:17:18;7.18;;;6.55;;
44606;SDS011;30315;46.072;14.474;2023-08-17T13:19:45;6.95;;;6.40;;
44606;SDS011;30315;46.072;14.474;2023-08-17T13:22:12;6.85;;;6.45;;
44606;SDS011;30315;46.072;14.474;2023-08-17T13:24:39;7.20;;;6.65;;
44606;SDS011;30315;46.072;14.474;2023-08-17T13:27:06;9.15;;;6.68;;
44606;SDS011;30315;46.072;14.474;2023-08-17T13:29:33;6.80;;;6.22;;
44606;SDS011;30315;46.072;14.474;2023-08-17T13:32:01;7.40;;;6.80;;
44606;SDS011;30315;46.072;14.474;2023-08-17T13:34:28;7.15;;;6.57;;
44606;SDS011;30315;46.072;14.474;2023-08-17T13:36:55;7.18;;;6.60;;
44606;SDS011;30315;46.072;14.474;2023-08-17T13:39:22;6.93;;;6.47;;
44606;SDS011;30315;46.072;14.474;2023-08-17T13:41:49;6.90;;;6.40;;
44606;SDS011;30315;46.072;14.474;2023-08-17T13:44:16;6.78;;;6.28;;
44606;SDS011;30315;46.072;14.474;2023-08-17T13:46:43;6.40;;;6.00;;
44606;SDS011;30315;46.072;14.474;2023-08-17T13:49:10;6.32;;;5.85;;
44606;SDS011;30315;46.072;14.474;2023-08-17T13:51:37;6.18;;;5.88;;
44606;SDS011;30315;46.072;14.474;2023-08-17T13:54:04;6.65;;;6.15;;
44606;SDS011;30315;46.072;14.474;2023-08-17T13:56:31;6.03;;;5.72;;
44606;SDS011;30315;46.072;14.474;2023-08-17T13:58:58;6.03;;;5.53;;
44606;SDS011;30315;46.072;14.474;2023-08-17T14:01:25;5.78;;;5.47;;
44606;SDS011;30315;46.072;14.474;2023-08-17T14:03:52;6.20;;;5.60;;
44606;SDS011;30315;46.072;14.474;2023-08-17T14:06:19;6.22;;;5.78;;
44606;SDS011;30315;46.072;14.474;2023-08-17T14:08:46;6.03;;;5.63;;
44606;SDS011;30315;46.072;14.474;2023-08-17T14:11:13;6.07;;;5.65;;
44606;SDS011;30315;46.072;14.474;2023-08-17T14:13:40;5.72;;;5.43;;
44606;SDS011;30315;46.072;14.474;2023-08-17T14:16:06;6.30;;;5.90;;
44606;SDS011;30315;46.072;14.474;2023-08-17T14:18:33;5.68;;;5.25;;
44606;SDS011;30315;46.072;14.474;2023-08-17T14:21:00;5.90;;;5.38;;
44606;SDS011;30315;46.072;14.474;2023-08-17T14:23:27;5.90;;;5.60;;
44606;SDS011;30315;46.072;14.474;2023-08-17T14:25:54;5.90;;;5.50;;
44606;SDS011;30315;46.072;14.474;2023-08-17T14:28:21;6.13;;;5.68;;
44606;SDS011;30315;46.072;14.474;2023-08-17T14:30:48;5.60;;;5.20;;
44606;SDS011;30315;46.072;14.474;2023-08-17T14:33:18;5.50;;;5.10;;
44606;SDS011;30315;46.072;14.474;2023-08-17T14:35:45;5.57;;;5.15;;
44606;SDS011;30315;46.072;14.474;2023-08-17T14:38:13;6.10;;;5.70;;
44606;SDS011;30315;46.072;14.474;2023-08-17T14:40:44;6.07;;;5.57;;
44606;SDS011;30315;46.072;14.474;2023-08-17T14:43:12;5.90;;;5.50;;
44606;SDS011;30315;46.072;14.474;2023-08-17T14:45:45;6.30;;;5.75;;
44606;SDS011;30315;46.072;14.474;2023-08-17T14:48:12;6.07;;;5.68;;
44606;SDS011;30315;46.072;14.474;2023-08-17T14:50:39;5.57;;;5.28;;
44606;SDS011;30315;46.072;14.474;2023-08-17T14:53:06;5.60;;;5.20;;
44606;SDS011;30315;46.072;14.474;2023-08-17T14:55:33;5.57;;;4.93;;
44606;SDS011;30315;46.072;14.474;2023-08-17T14:58:00;5.47;;;5.07;;
44606;SDS011;30315;46.072;14.474;2023-08-17T15:02:59;5.68;;;5.32;;
44606;SDS011;30315;46.072;14.474;2023-08-17T15:05:27;5.90;;;5.60;;
44606;SDS011;30315;46.072;14.474;2023-08-17T15:07:54;6.03;;;5.45;;
44606;SDS011;30315;46.072;14.474;2023-08-17T15:10:21;5.82;;;5.53;;